createdAt,value
2018-12-24T00:01:18.619Z,100772.81
2018-12-24T00:03:47.181Z,100771.69
2018-12-24T00:06:15.720Z,100772.16
2018-12-24T00:08:44.385Z,100778.95
2018-12-24T00:11:12.931Z,100780.55
2018-12-24T00:13:41.473Z,100777.56
2018-12-24T00:16:10.090Z,100780.53
2018-12-24T00:18:38.629Z,100788.77
2018-12-24T00:21:07.210Z,100792.47
2018-12-24T00:23:35.721Z,100787.63
2018-12-24T00:26:04.372Z,100793.77
2018-12-24T00:28:32.970Z,100796.34
2018-12-24T00:31:01.673Z,100801.55
2018-12-24T00:33:30.215Z,100801.88
2018-12-24T00:35:58.783Z,100809.52
2018-12-24T00:38:27.329Z,100807.42
2018-12-24T00:40:55.911Z,100821.58
2018-12-24T00:43:24.457Z,100828.52
2018-12-24T00:45:53.104Z,100819.59
2018-12-24T00:48:21.650Z,100827.56
2018-12-24T00:50:50.340Z,100840.47
2018-12-24T00:53:18.870Z,100842.41
2018-12-24T00:55:47.467Z,100847.89
2018-12-24T00:58:16.019Z,100851.11
2018-12-24T01:00:44.588Z,100848.73
2018-12-24T01:03:13.132Z,100859.97
2018-12-24T01:05:41.926Z,100872.09
2018-12-24T01:08:13.297Z,100872.68
2018-12-24T01:10:41.858Z,100864.03
2018-12-24T01:13:10.417Z,100880.02
2018-12-24T01:15:38.986Z,100879.64
2018-12-24T01:18:07.528Z,100878.05
2018-12-24T01:20:37.752Z,100895.38
2018-12-24T01:23:06.326Z,100901.69
2018-12-24T01:25:34.890Z,100904.55
2018-12-24T01:28:03.437Z,100903.65
2018-12-24T01:30:32.125Z,100902.91
2018-12-24T01:33:03.361Z,100905.56
2018-12-24T01:35:32.118Z,100904.92
2018-12-24T01:38:00.691Z,100909.06
2018-12-24T01:40:29.226Z,100915.61
2018-12-24T01:42:57.792Z,100916.27
2018-12-24T01:45:26.356Z,100919.54
2018-12-24T01:47:54.913Z,100922.10
2018-12-24T01:50:27.048Z,100918.77
2018-12-24T01:52:58.154Z,100917.85
2018-12-24T01:55:26.683Z,100916.89
2018-12-24T01:57:55.281Z,100924.50
2018-12-24T02:00:23.817Z,100927.67
2018-12-24T02:02:52.380Z,100918.84
2018-12-24T02:05:20.916Z,100927.49
2018-12-24T02:07:49.490Z,100921.94
2018-12-24T02:10:18.026Z,100924.52
2018-12-24T02:12:46.584Z,100939.57
2018-12-24T02:15:15.124Z,100945.19
2018-12-24T02:17:43.697Z,100954.59
2018-12-24T02:20:12.310Z,100947.36
2018-12-24T02:22:40.901Z,100956.35
2018-12-24T02:25:09.428Z,100971.41
2018-12-24T02:27:38.002Z,100968.03
2018-12-24T02:30:06.703Z,100968.84
2018-12-24T02:32:35.255Z,100965.75
2018-12-24T02:35:03.802Z,100985.72
2018-12-24T02:37:32.378Z,100980.38
2018-12-24T02:40:00.940Z,100994.31
2018-12-24T02:42:29.504Z,100987.30
2018-12-24T02:44:58.059Z,100991.27
2018-12-24T02:47:26.626Z,100992.95
2018-12-24T02:49:55.171Z,100993.31
2018-12-24T02:52:23.737Z,101011.23
2018-12-24T02:54:52.286Z,101010.13
2018-12-24T02:57:20.864Z,101015.67
2018-12-24T02:59:49.434Z,101016.55
2018-12-24T03:02:17.976Z,101026.83
2018-12-24T03:04:46.536Z,101035.92
2018-12-24T03:07:15.094Z,101036.02
2018-12-24T03:09:43.758Z,101047.06
2018-12-24T03:12:12.290Z,101042.36
2018-12-24T03:14:40.848Z,101045.98
2018-12-24T03:17:09.402Z,101057.56
2018-12-24T03:19:37.964Z,101057.15
2018-12-24T03:22:06.529Z,101063.08
2018-12-24T03:24:35.097Z,101070.42
2018-12-24T03:27:03.634Z,101072.25
2018-12-24T03:29:32.244Z,101077.20
2018-12-24T03:32:00.785Z,101076.22
2018-12-24T03:34:29.333Z,101092.02
2018-12-24T03:36:57.908Z,101088.69
2018-12-24T03:39:26.463Z,101088.77
2018-12-24T03:41:55.003Z,101090.45
2018-12-24T03:44:23.600Z,101093.73
2018-12-24T03:46:52.213Z,101103.44
2018-12-24T03:49:20.765Z,101109.25
2018-12-24T03:51:49.322Z,101107.39
2018-12-24T03:54:17.933Z,101112.45
2018-12-24T03:56:46.553Z,101117.77
2018-12-24T03:59:15.059Z,101120.91
2018-12-24T04:01:43.599Z,101131.50
2018-12-24T04:04:12.187Z,101132.70
2018-12-24T04:06:40.707Z,101144.27
2018-12-24T04:09:09.277Z,101147.41
2018-12-24T04:11:37.813Z,101151.61
2018-12-24T04:14:06.365Z,101152.01
2018-12-24T04:16:34.905Z,101170.92
2018-12-24T04:19:03.485Z,101178.34
2018-12-24T04:21:32.008Z,101180.59
2018-12-24T04:24:00.572Z,101196.89
2018-12-24T04:26:29.107Z,101201.44
2018-12-24T04:28:57.649Z,101212.61
2018-12-24T04:31:26.181Z,101206.13
2018-12-24T04:33:54.733Z,101227.08
2018-12-24T04:36:23.289Z,101225.40
2018-12-24T04:38:51.843Z,101239.11
2018-12-24T04:41:20.384Z,101246.27
2018-12-24T04:43:48.944Z,101256.12
2018-12-24T04:46:17.499Z,101256.06
2018-12-24T04:48:46.027Z,101270.23
2018-12-24T04:51:14.588Z,101275.58
2018-12-24T04:53:43.116Z,101285.84
2018-12-24T04:56:11.668Z,101291.29
2018-12-24T04:58:40.210Z,101300.00
2018-12-24T05:01:08.766Z,101307.91
2018-12-24T05:03:37.286Z,101310.73
2018-12-24T05:06:05.851Z,101324.56
2018-12-24T05:08:34.388Z,101332.28
2018-12-24T05:11:02.952Z,101354.66
2018-12-24T05:13:31.520Z,101355.20
2018-12-24T05:16:00.085Z,101355.33
2018-12-24T05:18:28.620Z,101362.80
2018-12-24T05:20:57.192Z,101372.84
2018-12-24T05:23:25.766Z,101377.83
2018-12-24T05:25:54.461Z,101384.38
2018-12-24T05:28:23.001Z,101390.88
2018-12-24T05:30:51.562Z,101402.78
2018-12-24T05:33:20.109Z,101405.96
2018-12-24T05:35:48.664Z,101413.97
2018-12-24T05:38:17.200Z,101416.48
2018-12-24T05:40:45.764Z,101434.88
2018-12-24T05:43:14.302Z,101437.41
2018-12-24T05:45:42.940Z,101438.16
2018-12-24T05:48:11.478Z,101441.92
2018-12-24T05:50:40.046Z,101448.73
2018-12-24T05:53:08.583Z,101454.48
2018-12-24T05:55:37.155Z,101463.38
2018-12-24T05:58:05.708Z,101461.86
2018-12-24T06:00:34.244Z,101479.47
2018-12-24T06:03:02.797Z,101493.14
2018-12-24T06:05:31.337Z,101514.26
2018-12-24T06:07:59.917Z,101522.56
2018-12-24T06:10:28.513Z,101519.23
2018-12-24T06:12:57.068Z,101524.50
2018-12-24T06:15:25.631Z,101538.73
2018-12-24T06:17:54.184Z,101552.48
2018-12-24T06:20:22.723Z,101553.50
2018-12-24T06:22:51.274Z,101567.75
2018-12-24T06:25:19.820Z,101562.60
2018-12-24T06:27:48.369Z,101576.70
2018-12-24T06:30:16.909Z,101576.28
2018-12-24T06:32:45.513Z,101579.00
2018-12-24T06:35:14.003Z,101593.58
2018-12-24T06:37:42.573Z,101595.64
2018-12-24T06:40:11.113Z,101601.29
2018-12-24T06:42:39.665Z,101609.88
2018-12-24T06:45:08.197Z,101617.95
2018-12-24T06:47:36.759Z,101619.87
2018-12-24T06:50:05.657Z,101628.61
2018-12-24T06:52:34.216Z,101635.38
2018-12-24T06:55:02.763Z,101641.64
2018-12-24T06:57:31.331Z,101647.67
2018-12-24T06:59:59.858Z,101657.43
2018-12-24T07:02:28.413Z,101680.00
2018-12-24T07:04:56.956Z,101681.91
2018-12-24T07:07:25.529Z,101686.54
2018-12-24T07:09:54.064Z,101695.25
2018-12-24T07:12:22.650Z,101703.30
2018-12-24T07:14:51.201Z,101705.87
2018-12-24T07:17:19.752Z,101709.09
2018-12-24T07:19:48.284Z,101719.20
2018-12-24T07:22:16.824Z,101723.19
2018-12-24T07:24:45.378Z,101732.02
2018-12-24T07:27:13.918Z,101738.30
2018-12-24T07:29:42.482Z,101757.39
2018-12-24T07:32:11.040Z,101761.98
2018-12-24T07:34:39.588Z,101769.03
2018-12-24T07:37:08.124Z,101769.17
2018-12-24T07:39:36.694Z,101775.93
2018-12-24T07:42:05.230Z,101784.05
2018-12-24T07:44:33.813Z,101788.92
2018-12-24T07:47:02.345Z,101792.47
2018-12-24T07:49:30.894Z,101795.54
2018-12-24T07:51:59.428Z,101814.55
2018-12-24T07:54:28.010Z,101829.25
2018-12-24T07:56:56.536Z,101832.98
2018-12-24T07:59:25.100Z,101838.35
2018-12-24T08:01:53.642Z,101845.26
2018-12-24T08:04:22.211Z,101853.25
2018-12-24T08:06:50.743Z,101853.48
2018-12-24T08:09:19.308Z,101865.12
2018-12-24T08:11:47.830Z,101880.47
2018-12-24T08:14:16.393Z,101886.64
2018-12-24T08:16:44.938Z,101894.48
2018-12-24T08:19:13.492Z,101905.72
2018-12-24T08:21:42.034Z,101906.50
2018-12-24T08:24:10.586Z,101913.78
2018-12-24T08:26:39.136Z,101926.83
2018-12-24T08:29:07.674Z,101937.24
2018-12-24T08:31:36.278Z,101948.84
2018-12-24T08:34:04.815Z,101945.06
2018-12-24T08:36:33.460Z,101955.26
2018-12-24T08:39:02.018Z,101947.77
2018-12-24T08:41:30.587Z,101959.10
2018-12-24T08:43:59.138Z,101956.56
2018-12-24T08:46:27.860Z,101968.72
2018-12-24T08:48:56.402Z,101959.36
2018-12-24T08:51:25.010Z,101968.09
2018-12-24T08:53:53.505Z,101976.25
2018-12-24T08:56:22.067Z,101978.04
2018-12-24T08:58:50.597Z,101988.94
2018-12-24T09:01:19.167Z,101995.25
2018-12-24T09:03:47.727Z,101998.41
2018-12-24T09:06:16.305Z,101998.20
2018-12-24T09:08:44.848Z,102004.77
2018-12-24T09:11:13.396Z,101999.34
2018-12-24T09:13:41.943Z,102006.59
2018-12-24T09:16:10.500Z,102015.55
2018-12-24T09:18:39.047Z,102017.97
2018-12-24T09:21:07.598Z,102021.16
2018-12-24T09:23:36.144Z,102027.64
2018-12-24T09:26:04.705Z,102025.66
2018-12-24T09:28:33.244Z,102037.50
2018-12-24T09:31:01.801Z,102040.88
2018-12-24T09:33:30.340Z,102053.03
2018-12-24T09:36:00.544Z,102050.66
2018-12-24T09:38:29.062Z,102052.67
2018-12-24T09:40:57.730Z,102058.13
2018-12-24T09:43:26.258Z,102064.80
2018-12-24T09:45:54.818Z,102070.35
2018-12-24T09:48:23.346Z,102085.83
2018-12-24T09:50:51.924Z,102079.62
2018-12-24T09:53:20.462Z,102077.48
2018-12-24T09:55:49.086Z,102077.78
2018-12-24T09:58:17.666Z,102073.43
2018-12-24T10:00:46.211Z,102081.03
2018-12-24T10:03:15.079Z,102079.30
2018-12-24T10:05:43.638Z,102093.30
2018-12-24T10:08:13.923Z,102100.13
2018-12-24T10:10:42.471Z,102093.42
2018-12-24T10:13:11.032Z,102096.55
2018-12-24T10:15:39.578Z,102096.06
2018-12-24T10:18:08.120Z,102091.13
2018-12-24T10:20:36.666Z,102091.45
2018-12-24T10:23:05.225Z,102093.04
2018-12-24T10:25:33.762Z,102103.31
2018-12-24T10:28:02.339Z,102106.30
2018-12-24T10:30:30.888Z,102106.86
2018-12-24T10:32:59.470Z,102112.26
2018-12-24T10:35:28.012Z,102113.66
2018-12-24T10:37:56.589Z,102117.62
2018-12-24T10:40:25.136Z,102131.91
2018-12-24T10:42:53.728Z,102125.60
2018-12-24T10:45:22.251Z,102128.12
2018-12-24T10:47:50.839Z,102133.75
2018-12-24T10:50:19.383Z,102116.32
2018-12-24T10:52:47.961Z,102129.13
2018-12-24T10:55:16.509Z,102134.56
2018-12-24T10:57:45.069Z,102131.97
2018-12-24T11:00:13.617Z,102130.21
2018-12-24T11:02:42.170Z,102145.94
2018-12-24T11:05:10.722Z,102143.91
2018-12-24T11:07:39.257Z,102155.71
2018-12-24T11:10:09.859Z,102152.37
2018-12-24T11:12:38.405Z,102153.97
2018-12-24T11:15:09.018Z,102158.77
2018-12-24T11:17:37.608Z,102152.41
2018-12-24T11:20:07.401Z,102162.92
2018-12-24T11:22:35.958Z,102163.81
2018-12-24T11:25:04.577Z,102169.72
2018-12-24T11:27:33.137Z,102172.40
2018-12-24T11:30:01.704Z,102177.02
2018-12-24T11:32:30.252Z,102167.23
2018-12-24T11:34:58.803Z,102152.53
2018-12-24T11:37:27.331Z,102158.00
2018-12-24T11:39:55.872Z,102152.83
2018-12-24T11:42:26.046Z,102151.59
2018-12-24T11:44:54.756Z,102153.64
2018-12-24T11:47:23.306Z,102168.22
2018-12-24T11:49:51.887Z,102167.14
2018-12-24T11:52:20.440Z,102173.55
2018-12-24T11:54:48.993Z,102174.64
2018-12-24T11:57:17.561Z,102184.50
2018-12-24T11:59:46.125Z,102184.85
2018-12-24T12:02:14.665Z,102180.20
2018-12-24T12:04:43.239Z,102178.30
2018-12-24T12:07:11.791Z,102181.13
2018-12-24T12:09:40.364Z,102188.63
2018-12-24T12:12:08.896Z,102201.00
2018-12-24T12:14:37.467Z,102193.94
2018-12-24T12:17:06.009Z,102195.57
2018-12-24T12:19:34.590Z,102191.62
2018-12-24T12:22:03.125Z,102194.53
2018-12-24T12:24:31.699Z,102192.00
2018-12-24T12:27:00.255Z,102196.89
2018-12-24T12:29:28.823Z,102196.58
2018-12-24T12:31:57.378Z,102207.72
2018-12-24T12:34:25.930Z,102206.29
2018-12-24T12:36:54.493Z,102215.45
2018-12-24T12:39:23.031Z,102222.75
2018-12-24T12:41:51.605Z,102217.00
2018-12-24T12:44:20.160Z,102220.38
2018-12-24T12:46:48.730Z,102222.08
2018-12-24T12:49:17.283Z,102219.68
2018-12-24T12:51:45.839Z,102223.60
2018-12-24T12:54:14.387Z,102222.71
2018-12-24T12:56:42.961Z,102220.66
2018-12-24T12:59:11.505Z,102229.63
2018-12-24T13:01:40.066Z,102234.63
2018-12-24T13:04:08.606Z,102235.56
2018-12-24T13:06:37.183Z,102249.19
2018-12-24T13:09:06.910Z,102239.13
2018-12-24T13:11:35.487Z,102255.12
2018-12-24T13:14:04.037Z,102264.45
2018-12-24T13:16:32.609Z,102275.98
2018-12-24T13:19:01.176Z,102282.30
2018-12-24T13:21:29.732Z,102285.45
2018-12-24T13:23:58.269Z,102282.66
2018-12-24T13:26:27.012Z,102283.63
2018-12-24T13:28:55.545Z,102286.09
2018-12-24T13:31:24.131Z,102292.98
2018-12-24T13:33:52.668Z,102282.50
2018-12-24T13:36:21.220Z,102293.92
2018-12-24T13:38:49.781Z,102291.63
2018-12-24T13:41:18.375Z,102309.30
2018-12-24T13:43:46.913Z,102300.09
2018-12-24T13:46:15.478Z,102305.45
2018-12-24T13:48:44.022Z,102308.72
2018-12-24T13:51:12.663Z,102317.39
2018-12-24T13:53:42.058Z,102320.84
2018-12-24T13:56:10.866Z,102322.80
2018-12-24T13:59:23.457Z,102337.94
2018-12-24T14:01:50.785Z,102342.89
2018-12-24T14:04:19.223Z,102340.91
2018-12-24T14:06:47.673Z,102351.34
2018-12-24T14:09:16.110Z,102339.62
2018-12-24T14:11:44.560Z,102346.98
2018-12-24T14:14:12.996Z,102341.56
2018-12-24T14:16:41.495Z,102349.49
2018-12-24T14:19:09.935Z,102352.91
2018-12-24T14:21:38.375Z,102357.98
2018-12-24T14:24:06.857Z,102344.50
2018-12-24T14:26:35.344Z,102353.95
2018-12-24T14:29:03.804Z,102347.08
2018-12-24T14:31:32.245Z,102343.04
2018-12-24T14:34:00.764Z,102347.70
2018-12-24T14:36:29.159Z,102359.31
2018-12-24T14:38:57.614Z,102362.23
2018-12-24T14:41:26.050Z,102369.33
2018-12-24T14:43:54.536Z,102380.66
2018-12-24T14:46:25.738Z,102376.75
2018-12-24T14:48:53.150Z,102375.74
2018-12-24T14:51:21.593Z,102380.92
2018-12-24T14:53:50.048Z,102378.89
2018-12-24T14:56:18.502Z,102379.13
2018-12-24T14:58:46.977Z,102397.13
2018-12-24T15:01:15.407Z,102401.92
2018-12-24T15:03:43.859Z,102415.89
2018-12-24T15:06:12.303Z,102418.00
2018-12-24T15:08:40.773Z,102426.52
2018-12-24T15:11:09.199Z,102428.30
2018-12-24T15:13:37.659Z,102426.92
2018-12-24T15:16:06.101Z,102434.20
2018-12-24T15:18:34.589Z,102441.17
2018-12-24T15:21:03.019Z,102436.77
2018-12-24T15:23:31.477Z,102432.97
2018-12-24T15:25:59.933Z,102436.74
2018-12-24T15:28:28.395Z,102441.26
2018-12-24T15:30:56.836Z,102438.08
2018-12-24T15:33:25.262Z,102433.45
2018-12-24T15:35:53.712Z,102441.81
2018-12-24T15:38:22.148Z,102442.77
2018-12-24T15:40:50.605Z,102443.00
2018-12-24T15:43:19.046Z,102439.75
2018-12-24T15:45:47.528Z,102435.28
2018-12-24T15:48:15.975Z,102435.59
2018-12-24T15:50:44.426Z,102436.36
2018-12-24T15:53:12.877Z,102434.51
2018-12-24T15:55:41.332Z,102433.89
2018-12-24T15:58:09.768Z,102439.84
2018-12-24T16:00:38.235Z,102438.38
2018-12-24T16:03:06.675Z,102441.72
2018-12-24T16:05:35.148Z,102435.85
2018-12-24T16:08:03.717Z,102439.81
2018-12-24T16:10:32.142Z,102435.94
2018-12-24T16:13:01.577Z,102430.53
2018-12-24T16:15:30.139Z,102427.92
2018-12-24T16:17:58.560Z,102425.73
2018-12-24T16:20:27.019Z,102419.41
2018-12-24T16:22:55.520Z,102426.83
2018-12-24T16:25:23.988Z,102424.27
2018-12-24T16:27:52.419Z,102425.39
2018-12-24T16:30:20.878Z,102427.68
2018-12-24T16:32:49.318Z,102430.45
2018-12-24T16:35:17.778Z,102440.27
2018-12-24T16:37:46.293Z,102417.03
2018-12-24T16:40:14.797Z,102409.42
2018-12-24T16:42:43.279Z,102414.59
2018-12-24T16:45:11.676Z,102432.83
2018-12-24T16:47:40.159Z,102442.86
2018-12-24T16:50:08.590Z,102445.38
2018-12-24T16:52:37.056Z,102452.73
2018-12-24T16:55:05.495Z,102450.27
2018-12-24T16:57:33.953Z,102465.44
2018-12-24T17:00:02.410Z,102460.41
2018-12-24T17:02:30.992Z,102476.83
2018-12-24T17:04:59.441Z,102477.31
2018-12-24T17:07:27.902Z,102478.08
2018-12-24T17:09:56.344Z,102479.75
2018-12-24T17:12:24.808Z,102477.52
2018-12-24T17:14:53.278Z,102476.63
2018-12-24T17:17:21.734Z,102475.29
2018-12-24T17:19:50.169Z,102483.22
2018-12-24T17:22:18.624Z,102479.64
2018-12-24T17:24:47.090Z,102493.14
2018-12-24T17:27:15.548Z,102489.81
2018-12-24T17:29:43.992Z,102490.50
2018-12-24T17:32:12.458Z,102484.39
2018-12-24T17:34:40.939Z,102483.55
2018-12-24T17:37:09.383Z,102485.83
2018-12-24T17:39:37.829Z,102484.77
2018-12-24T17:42:06.287Z,102480.01
2018-12-24T17:44:34.721Z,102472.39
2018-12-24T17:47:03.187Z,102478.67
2018-12-24T17:49:31.632Z,102470.02
2018-12-24T17:52:00.108Z,102475.74
2018-12-24T17:54:28.543Z,102480.14
2018-12-24T17:56:56.972Z,102481.06
2018-12-24T17:59:25.463Z,102480.01
2018-12-24T18:01:53.993Z,102485.03
2018-12-24T18:04:22.433Z,102474.41
2018-12-24T18:06:50.873Z,102476.63
2018-12-24T18:09:19.343Z,102479.44
2018-12-24T18:11:47.781Z,102478.59
2018-12-24T18:14:16.247Z,102479.94
2018-12-24T18:16:44.681Z,102484.95
2018-12-24T18:19:13.141Z,102467.55
2018-12-24T18:21:41.584Z,102467.28
2018-12-24T18:24:10.034Z,102468.33
2018-12-24T18:26:38.482Z,102473.87
2018-12-24T18:29:06.962Z,102467.39
2018-12-24T18:31:35.399Z,102463.38
2018-12-24T18:34:03.854Z,102452.84
2018-12-24T18:36:32.298Z,102456.69
2018-12-24T18:39:00.751Z,102451.67
2018-12-24T18:41:29.197Z,102447.75
2018-12-24T18:43:57.651Z,102446.34
2018-12-24T18:46:26.081Z,102460.30
2018-12-24T18:48:54.538Z,102455.45
2018-12-24T18:51:22.992Z,102450.36
2018-12-24T18:53:51.455Z,102455.69
2018-12-24T18:56:19.898Z,102449.78
2018-12-24T18:58:48.359Z,102443.98
2018-12-24T19:01:16.799Z,102448.84
2018-12-24T19:03:45.278Z,102442.39
2018-12-24T19:06:13.721Z,102450.20
2018-12-24T19:08:42.318Z,102443.79
2018-12-24T19:11:11.476Z,102451.25
2018-12-24T19:13:40.016Z,102450.36
2018-12-24T19:16:08.449Z,102447.37
2018-12-24T19:18:36.896Z,102447.17
2018-12-24T19:21:05.366Z,102451.92
2018-12-24T19:23:33.798Z,102451.60
2018-12-24T19:26:02.405Z,102457.47
2018-12-24T19:28:30.855Z,102467.27
2018-12-24T19:30:59.351Z,102465.76
2018-12-24T19:33:29.414Z,102472.60
2018-12-24T19:35:57.881Z,102474.97
2018-12-24T19:38:26.315Z,102487.18
2018-12-24T19:40:54.786Z,102483.87
2018-12-24T19:43:23.221Z,102492.47
2018-12-24T19:45:51.684Z,102493.52
2018-12-24T19:48:20.122Z,102500.59
2018-12-24T19:50:48.579Z,102502.39
2018-12-24T19:53:17.035Z,102510.29
2018-12-24T19:55:45.481Z,102504.84
2018-12-24T19:58:13.925Z,102509.73
2018-12-24T20:00:42.387Z,102509.61
2018-12-24T20:03:10.825Z,102499.19
2018-12-24T20:05:39.276Z,102503.42
2018-12-24T20:08:07.707Z,102501.95
2018-12-24T20:10:39.301Z,102505.34
2018-12-24T20:13:07.746Z,102509.47
2018-12-24T20:15:36.179Z,102502.27
2018-12-24T20:18:04.709Z,102506.62
2018-12-24T20:20:33.123Z,102507.95
2018-12-24T20:23:01.569Z,102505.93
2018-12-24T20:25:30.082Z,102509.39
2018-12-24T20:27:58.529Z,102511.96
2018-12-24T20:30:26.982Z,102504.95
2018-12-24T20:32:55.457Z,102504.41
2018-12-24T20:35:23.893Z,102507.91
2018-12-24T20:37:52.444Z,102505.16
2018-12-24T20:40:20.866Z,102514.87
2018-12-24T20:42:49.319Z,102523.26
2018-12-24T20:45:17.762Z,102520.79
2018-12-24T20:47:46.225Z,102517.30
2018-12-24T20:50:14.666Z,102517.30
2018-12-24T20:52:43.130Z,102502.90
2018-12-24T20:55:11.569Z,102506.99
2018-12-24T20:57:40.043Z,102501.70
2018-12-24T21:00:08.667Z,102506.41
2018-12-24T21:02:37.133Z,102502.79
2018-12-24T21:05:06.715Z,102505.09
2018-12-24T21:07:35.176Z,102491.59
2018-12-24T21:10:03.695Z,102493.80
2018-12-24T21:12:32.154Z,102490.46
2018-12-24T21:15:00.600Z,102483.27
2018-12-24T21:17:29.064Z,102473.47
2018-12-24T21:19:57.561Z,102473.23
2018-12-24T21:22:26.051Z,102470.78
2018-12-24T21:24:54.505Z,102471.48
2018-12-24T21:27:23.109Z,102462.53
2018-12-24T21:29:51.653Z,102459.96
2018-12-24T21:32:20.100Z,102462.05
2018-12-24T21:34:48.557Z,102455.56
2018-12-24T21:37:17.021Z,102451.20
2018-12-24T21:39:45.831Z,102453.61
2018-12-24T21:42:14.262Z,102450.06
2018-12-24T21:44:42.739Z,102438.95
2018-12-24T21:47:11.212Z,102435.84
2018-12-24T21:49:39.732Z,102436.61
2018-12-24T21:52:08.183Z,102429.84
2018-12-24T21:54:36.644Z,102427.69
2018-12-24T21:57:06.123Z,102436.41
2018-12-24T21:59:34.581Z,102438.02
2018-12-24T22:02:03.029Z,102429.60
2018-12-24T22:04:31.501Z,102433.30
2018-12-24T22:06:59.936Z,102447.94
2018-12-24T22:09:28.401Z,102453.86
2018-12-24T22:11:56.857Z,102457.47
2018-12-24T22:14:25.319Z,102456.38
2018-12-24T22:16:53.761Z,102455.44
2018-12-24T22:19:22.246Z,102461.31
2018-12-24T22:21:52.347Z,102467.70
2018-12-24T22:24:20.815Z,102470.06
2018-12-24T22:26:49.380Z,102456.14
2018-12-24T22:29:17.821Z,102464.42
2018-12-24T22:31:46.255Z,102458.54
2018-12-24T22:34:14.721Z,102453.73
2018-12-24T22:36:43.163Z,102460.66
2018-12-24T22:39:11.639Z,102466.88
2018-12-24T22:41:40.094Z,102462.55
2018-12-24T22:44:08.546Z,102453.34
2018-12-24T22:46:36.999Z,102461.47
2018-12-24T22:49:05.478Z,102458.39
2018-12-24T22:51:33.913Z,102446.84
2018-12-24T22:54:02.386Z,102438.59
2018-12-24T22:56:30.868Z,102445.28
2018-12-24T22:58:59.369Z,102448.44
2018-12-24T23:01:27.999Z,102437.42
2018-12-24T23:03:56.455Z,102436.13
2018-12-24T23:06:24.995Z,102434.84
2018-12-24T23:08:53.446Z,102433.08
2018-12-24T23:11:21.911Z,102433.98
2018-12-24T23:13:50.363Z,102439.20
2018-12-24T23:16:18.814Z,102442.61
2018-12-24T23:18:49.553Z,102436.20
2018-12-24T23:21:17.462Z,102440.03
2018-12-24T23:23:45.896Z,102434.31
2018-12-24T23:26:14.381Z,102432.66
2018-12-24T23:28:42.831Z,102430.33
2018-12-24T23:31:11.311Z,102428.56
2018-12-24T23:33:39.787Z,102433.05
2018-12-24T23:36:08.263Z,102431.88
2018-12-24T23:38:36.720Z,102428.56
2018-12-24T23:41:05.178Z,102433.55
2018-12-24T23:43:33.642Z,102426.79
2018-12-24T23:46:02.088Z,102432.52
2018-12-24T23:48:30.528Z,102441.39
2018-12-24T23:50:59.004Z,102443.61
2018-12-24T23:53:27.463Z,102444.78
2018-12-24T23:55:55.915Z,102445.80
2018-12-24T23:58:24.424Z,102454.27
